sensor_id;sensor_type;location;lat;lon;timestamp;P1;durP1;ratioP1;P2;durP2;ratioP2
48743;SDS011;34538;48.836;9.174;2024-03-02T00:00:14;22.13;;;12.18;;
48743;SDS011;34538;48.836;9.174;2024-03-02T00:02:43;21.33;;;12.27;;
48743;SDS011;34538;48.836;9.174;2024-03-02T00:05:10;23.25;;;12.55;;
48743;SDS011;34538;48.836;9.174;2024-03-02T00:07:38;22.27;;;12.35;;
48743;SDS011;34538;48.836;9.174;2024-03-02T00:10:08;19.38;;;11.55;;
48743;SDS011;34538;48.836;9.174;2024-03-02T00:12:36;20.15;;;12.07;;
48743;SDS011;34538;48.836;9.174;2024-03-02T00:15:04;22.27;;;11.63;;
48743;SDS011;34538;48.836;9.174;2024-03-02T00:17:33;19.63;;;11.80;;
48743;SDS011;34538;48.836;9.174;2024-03-02T00:20:01;20.90;;;11.73;;
48743;SDS011;34538;48.836;9.174;2024-03-02T00:22:30;21.30;;;12.38;;
48743;SDS011;34538;48.836;9.174;2024-03-02T00:24:57;28.52;;;16.10;;
48743;SDS011;34538;48.836;9.174;2024-03-02T00:27:24;31.45;;;17.27;;
48743;SDS011;34538;48.836;9.174;2024-03-02T00:29:51;33.22;;;17.45;;
48743;SDS011;34538;48.836;9.174;2024-03-02T00:32:18;30.48;;;15.90;;
48743;SDS011;34538;48.836;9.174;2024-03-02T00:34:45;27.13;;;15.52;;
48743;SDS011;34538;48.836;9.174;2024-03-02T00:37:13;28.65;;;14.23;;
48743;SDS011;34538;48.836;9.174;2024-03-02T00:39:41;21.30;;;12.68;;
48743;SDS011;34538;48.836;9.174;2024-03-02T00:42:08;22.17;;;12.73;;
48743;SDS011;34538;48.836;9.174;2024-03-02T00:44:37;21.70;;;12.23;;
48743;SDS011;34538;48.836;9.174;2024-03-02T00:47:04;19.60;;;11.68;;
48743;SDS011;34538;48.836;9.174;2024-03-02T00:49:31;19.65;;;10.88;;
48743;SDS011;34538;48.836;9.174;2024-03-02T00:51:58;20.58;;;11.25;;
48743;SDS011;34538;48.836;9.174;2024-03-02T00:54:26;18.83;;;10.77;;
48743;SDS011;34538;48.836;9.174;2024-03-02T00:56:55;17.52;;;10.23;;
48743;SDS011;34538;48.836;9.174;2024-03-02T00:59:24;15.98;;;9.68;;
48743;SDS011;34538;48.836;9.174;2024-03-02T01:01:51;17.40;;;9.88;;
48743;SDS011;34538;48.836;9.174;2024-03-02T01:04:19;15.80;;;10.18;;
48743;SDS011;34538;48.836;9.174;2024-03-02T01:06:45;16.65;;;8.82;;
48743;SDS011;34538;48.836;9.174;2024-03-02T01:09:13;14.50;;;9.10;;
48743;SDS011;34538;48.836;9.174;2024-03-02T01:11:41;16.35;;;10.30;;
48743;SDS011;34538;48.836;9.174;2024-03-02T01:14:08;16.17;;;10.23;;
48743;SDS011;34538;48.836;9.174;2024-03-02T01:16:35;16.27;;;9.48;;
48743;SDS011;34538;48.836;9.174;2024-03-02T01:19:02;21.63;;;10.68;;
48743;SDS011;34538;48.836;9.174;2024-03-02T01:21:29;14.82;;;9.30;;
48743;SDS011;34538;48.836;9.174;2024-03-02T01:23:55;16.45;;;9.50;;
48743;SDS011;34538;48.836;9.174;2024-03-02T01:26:22;16.10;;;9.25;;
48743;SDS011;34538;48.836;9.174;2024-03-02T01:28:50;14.65;;;9.02;;
48743;SDS011;34538;48.836;9.174;2024-03-02T01:31:17;16.42;;;9.35;;
48743;SDS011;34538;48.836;9.174;2024-03-02T01:33:45;17.05;;;9.93;;
48743;SDS011;34538;48.836;9.174;2024-03-02T01:36:11;15.43;;;9.27;;
48743;SDS011;34538;48.836;9.174;2024-03-02T01:38:38;17.05;;;9.68;;
48743;SDS011;34538;48.836;9.174;2024-03-02T01:41:05;17.40;;;9.80;;
48743;SDS011;34538;48.836;9.174;2024-03-02T01:43:32;16.17;;;9.27;;
48743;SDS011;34538;48.836;9.174;2024-03-02T01:46:00;17.23;;;9.57;;
48743;SDS011;34538;48.836;9.174;2024-03-02T01:48:27;17.02;;;9.65;;
48743;SDS011;34538;48.836;9.174;2024-03-02T01:50:54;18.92;;;11.00;;
48743;SDS011;34538;48.836;9.174;2024-03-02T01:53:21;17.38;;;10.05;;
48743;SDS011;34538;48.836;9.174;2024-03-02T01:55:48;15.50;;;9.88;;
48743;SDS011;34538;48.836;9.174;2024-03-02T01:58:15;19.23;;;10.32;;
48743;SDS011;34538;48.836;9.174;2024-03-02T02:00:42;18.80;;;10.23;;
48743;SDS011;34538;48.836;9.174;2024-03-02T02:03:11;16.90;;;9.77;;
48743;SDS011;34538;48.836;9.174;2024-03-02T02:05:38;16.88;;;9.93;;
48743;SDS011;34538;48.836;9.174;2024-03-02T02:08:08;16.70;;;9.63;;
48743;SDS011;34538;48.836;9.174;2024-03-02T02:10:34;19.10;;;9.55;;
48743;SDS011;34538;48.836;9.174;2024-03-02T02:13:01;16.83;;;9.32;;
48743;SDS011;34538;48.836;9.174;2024-03-02T02:15:29;18.60;;;9.80;;
48743;SDS011;34538;48.836;9.174;2024-03-02T02:17:57;17.23;;;9.00;;
48743;SDS011;34538;48.836;9.174;2024-03-02T02:20:26;19.58;;;10.82;;
48743;SDS011;34538;48.836;9.174;2024-03-02T02:22:57;20.25;;;10.57;;
48743;SDS011;34538;48.836;9.174;2024-03-02T02:25:25;16.35;;;9.50;;
48743;SDS011;34538;48.836;9.174;2024-03-02T02:27:52;19.67;;;11.10;;
48743;SDS011;34538;48.836;9.174;2024-03-02T02:30:19;17.80;;;10.35;;
48743;SDS011;34538;48.836;9.174;2024-03-02T02:32:47;21.20;;;10.60;;
48743;SDS011;34538;48.836;9.174;2024-03-02T02:35:14;17.98;;;10.40;;
48743;SDS011;34538;48.836;9.174;2024-03-02T02:37:41;21.90;;;11.05;;
48743;SDS011;34538;48.836;9.174;2024-03-02T02:40:10;21.17;;;11.10;;
48743;SDS011;34538;48.836;9.174;2024-03-02T02:42:37;21.50;;;10.35;;
48743;SDS011;34538;48.836;9.174;2024-03-02T02:45:05;21.48;;;11.23;;
48743;SDS011;34538;48.836;9.174;2024-03-02T02:47:32;20.70;;;11.23;;
48743;SDS011;34538;48.836;9.174;2024-03-02T02:50:00;19.45;;;10.65;;
48743;SDS011;34538;48.836;9.174;2024-03-02T02:52:30;19.40;;;11.25;;
48743;SDS011;34538;48.836;9.174;2024-03-02T02:55:01;17.42;;;10.90;;
48743;SDS011;34538;48.836;9.174;2024-03-02T02:57:30;20.48;;;10.93;;
48743;SDS011;34538;48.836;9.174;2024-03-02T03:00:00;19.58;;;10.90;;
48743;SDS011;34538;48.836;9.174;2024-03-02T03:02:30;18.83;;;10.20;;
48743;SDS011;34538;48.836;9.174;2024-03-02T03:04:57;18.55;;;10.27;;
48743;SDS011;34538;48.836;9.174;2024-03-02T03:07:24;17.20;;;9.57;;
48743;SDS011;34538;48.836;9.174;2024-03-02T03:09:51;17.73;;;11.00;;
48743;SDS011;34538;48.836;9.174;2024-03-02T03:12:18;20.17;;;11.82;;
48743;SDS011;34538;48.836;9.174;2024-03-02T03:14:46;20.13;;;10.48;;
48743;SDS011;34538;48.836;9.174;2024-03-02T03:17:13;21.83;;;11.73;;
48743;SDS011;34538;48.836;9.174;2024-03-02T03:19:41;16.92;;;9.55;;
48743;SDS011;34538;48.836;9.174;2024-03-02T03:22:08;19.88;;;11.30;;
48743;SDS011;34538;48.836;9.174;2024-03-02T03:24:35;20.25;;;12.65;;
48743;SDS011;34538;48.836;9.174;2024-03-02T03:27:02;18.40;;;10.85;;
48743;SDS011;34538;48.836;9.174;2024-03-02T03:29:29;17.95;;;9.73;;
48743;SDS011;34538;48.836;9.174;2024-03-02T03:31:57;19.42;;;11.27;;
48743;SDS011;34538;48.836;9.174;2024-03-02T03:34:24;21.45;;;12.23;;
48743;SDS011;34538;48.836;9.174;2024-03-02T03:36:52;20.80;;;11.00;;
48743;SDS011;34538;48.836;9.174;2024-03-02T03:39:19;20.40;;;11.60;;
48743;SDS011;34538;48.836;9.174;2024-03-02T03:41:46;21.73;;;11.48;;
48743;SDS011;34538;48.836;9.174;2024-03-02T03:44:13;17.13;;;10.60;;
48743;SDS011;34538;48.836;9.174;2024-03-02T03:46:40;22.17;;;11.65;;
48743;SDS011;34538;48.836;9.174;2024-03-02T03:49:08;22.35;;;10.93;;
48743;SDS011;34538;48.836;9.174;2024-03-02T03:51:35;22.23;;;11.43;;
48743;SDS011;34538;48.836;9.174;2024-03-02T03:54:02;22.75;;;11.45;;
48743;SDS011;34538;48.836;9.174;2024-03-02T03:56:29;23.23;;;10.90;;
48743;SDS011;34538;48.836;9.174;2024-03-02T03:58:56;19.08;;;10.68;;
48743;SDS011;34538;48.836;9.174;2024-03-02T04:01:25;17.35;;;9.68;;
48743;SDS011;34538;48.836;9.174;2024-03-02T04:03:51;20.00;;;10.27;;
48743;SDS011;34538;48.836;9.174;2024-03-02T04:06:20;20.85;;;11.45;;
48743;SDS011;34538;48.836;9.174;2024-03-02T04:08:47;22.33;;;11.23;;
48743;SDS011;34538;48.836;9.174;2024-03-02T04:11:14;19.42;;;10.63;;
48743;SDS011;34538;48.836;9.174;2024-03-02T04:13:40;18.90;;;10.63;;
48743;SDS011;34538;48.836;9.174;2024-03-02T04:16:07;23.58;;;11.55;;
48743;SDS011;34538;48.836;9.174;2024-03-02T04:18:34;19.40;;;11.20;;
48743;SDS011;34538;48.836;9.174;2024-03-02T04:21:01;21.65;;;11.63;;
48743;SDS011;34538;48.836;9.174;2024-03-02T04:23:30;20.17;;;10.85;;
48743;SDS011;34538;48.836;9.174;2024-03-02T04:25:57;21.77;;;11.48;;
48743;SDS011;34538;48.836;9.174;2024-03-02T04:28:23;22.10;;;11.52;;
48743;SDS011;34538;48.836;9.174;2024-03-02T04:30:50;20.70;;;10.88;;
48743;SDS011;34538;48.836;9.174;2024-03-02T04:33:17;22.15;;;11.20;;
48743;SDS011;34538;48.836;9.174;2024-03-02T04:35:44;22.38;;;10.65;;
48743;SDS011;34538;48.836;9.174;2024-03-02T04:38:11;20.88;;;11.07;;
48743;SDS011;34538;48.836;9.174;2024-03-02T04:40:39;22.20;;;11.02;;
48743;SDS011;34538;48.836;9.174;2024-03-02T04:43:06;24.40;;;11.18;;
48743;SDS011;34538;48.836;9.174;2024-03-02T04:45:34;33.83;;;18.38;;
48743;SDS011;34538;48.836;9.174;2024-03-02T04:48:02;24.20;;;13.38;;
48743;SDS011;34538;48.836;9.174;2024-03-02T04:50:29;24.98;;;13.30;;
48743;SDS011;34538;48.836;9.174;2024-03-02T04:52:56;24.05;;;13.77;;
48743;SDS011;34538;48.836;9.174;2024-03-02T04:55:23;23.40;;;12.75;;
48743;SDS011;34538;48.836;9.174;2024-03-02T04:58:17;20.67;;;11.30;;
48743;SDS011;34538;48.836;9.174;2024-03-02T05:00:44;27.88;;;12.85;;
48743;SDS011;34538;48.836;9.174;2024-03-02T05:03:12;26.15;;;13.05;;
48743;SDS011;34538;48.836;9.174;2024-03-02T05:05:39;23.17;;;12.13;;
48743;SDS011;34538;48.836;9.174;2024-03-02T05:08:06;20.25;;;11.60;;
48743;SDS011;34538;48.836;9.174;2024-03-02T05:10:33;24.52;;;12.18;;
48743;SDS011;34538;48.836;9.174;2024-03-02T05:13:02;20.52;;;11.10;;
48743;SDS011;34538;48.836;9.174;2024-03-02T05:15:30;23.17;;;11.25;;
48743;SDS011;34538;48.836;9.174;2024-03-02T05:17:57;22.25;;;11.55;;
48743;SDS011;34538;48.836;9.174;2024-03-02T05:20:24;24.67;;;13.25;;
48743;SDS011;34538;48.836;9.174;2024-03-02T05:22:51;25.73;;;12.57;;
48743;SDS011;34538;48.836;9.174;2024-03-02T05:25:18;21.73;;;11.55;;
48743;SDS011;34538;48.836;9.174;2024-03-02T05:27:45;21.63;;;11.48;;
48743;SDS011;34538;48.836;9.174;2024-03-02T05:30:12;22.30;;;11.90;;
48743;SDS011;34538;48.836;9.174;2024-03-02T05:32:41;27.58;;;12.55;;
48743;SDS011;34538;48.836;9.174;2024-03-02T05:35:08;23.75;;;11.98;;
48743;SDS011;34538;48.836;9.174;2024-03-02T05:37:36;21.27;;;11.88;;
48743;SDS011;34538;48.836;9.174;2024-03-02T05:40:04;18.85;;;10.98;;
48743;SDS011;34538;48.836;9.174;2024-03-02T05:42:32;21.65;;;11.52;;
48743;SDS011;34538;48.836;9.174;2024-03-02T05:44:59;21.75;;;11.52;;
48743;SDS011;34538;48.836;9.174;2024-03-02T05:47:26;20.63;;;11.20;;
48743;SDS011;34538;48.836;9.174;2024-03-02T05:49:54;21.55;;;11.65;;
48743;SDS011;34538;48.836;9.174;2024-03-02T05:52:21;23.23;;;11.95;;
48743;SDS011;34538;48.836;9.174;2024-03-02T05:54:48;19.30;;;11.75;;
48743;SDS011;34538;48.836;9.174;2024-03-02T05:57:15;19.95;;;11.27;;
48743;SDS011;34538;48.836;9.174;2024-03-02T05:59:57;20.90;;;11.55;;
48743;SDS011;34538;48.836;9.174;2024-03-02T06:02:24;24.13;;;12.10;;
48743;SDS011;34538;48.836;9.174;2024-03-02T06:04:52;21.80;;;13.00;;
48743;SDS011;34538;48.836;9.174;2024-03-02T06:07:22;21.08;;;11.57;;
48743;SDS011;34538;48.836;9.174;2024-03-02T06:09:49;25.20;;;11.88;;
48743;SDS011;34538;48.836;9.174;2024-03-02T06:12:18;20.60;;;10.52;;
48743;SDS011;34538;48.836;9.174;2024-03-02T06:14:44;20.38;;;11.02;;
48743;SDS011;34538;48.836;9.174;2024-03-02T06:17:12;21.35;;;11.57;;
48743;SDS011;34538;48.836;9.174;2024-03-02T06:19:38;22.42;;;11.07;;
48743;SDS011;34538;48.836;9.174;2024-03-02T06:22:07;22.63;;;12.48;;
48743;SDS011;34538;48.836;9.174;2024-03-02T06:24:35;21.60;;;11.68;;
48743;SDS011;34538;48.836;9.174;2024-03-02T06:27:02;20.08;;;11.07;;
48743;SDS011;34538;48.836;9.174;2024-03-02T06:29:32;22.77;;;12.13;;
48743;SDS011;34538;48.836;9.174;2024-03-02T06:31:59;23.40;;;12.48;;
48743;SDS011;34538;48.836;9.174;2024-03-02T06:34:26;19.60;;;10.90;;
48743;SDS011;34538;48.836;9.174;2024-03-02T06:36:53;22.25;;;11.90;;
48743;SDS011;34538;48.836;9.174;2024-03-02T06:39:21;22.85;;;11.70;;
48743;SDS011;34538;48.836;9.174;2024-03-02T06:41:48;21.90;;;11.32;;
48743;SDS011;34538;48.836;9.174;2024-03-02T06:44:15;22.10;;;12.00;;
48743;SDS011;34538;48.836;9.174;2024-03-02T06:46:42;24.23;;;12.55;;
48743;SDS011;34538;48.836;9.174;2024-03-02T06:49:09;23.05;;;12.77;;
48743;SDS011;34538;48.836;9.174;2024-03-02T06:51:36;21.15;;;11.85;;
48743;SDS011;34538;48.836;9.174;2024-03-02T06:54:03;25.10;;;13.15;;
48743;SDS011;34538;48.836;9.174;2024-03-02T06:56:31;23.95;;;12.10;;
48743;SDS011;34538;48.836;9.174;2024-03-02T06:58:59;24.92;;;12.40;;
48743;SDS011;34538;48.836;9.174;2024-03-02T07:01:26;25.83;;;12.18;;
48743;SDS011;34538;48.836;9.174;2024-03-02T07:03:53;24.20;;;13.05;;
48743;SDS011;34538;48.836;9.174;2024-03-02T07:06:20;24.45;;;12.45;;
48743;SDS011;34538;48.836;9.174;2024-03-02T07:08:47;25.48;;;12.88;;
48743;SDS011;34538;48.836;9.174;2024-03-02T07:11:14;27.67;;;14.40;;
48743;SDS011;34538;48.836;9.174;2024-03-02T07:13:42;25.20;;;13.30;;
48743;SDS011;34538;48.836;9.174;2024-03-02T07:16:09;23.05;;;13.38;;
48743;SDS011;34538;48.836;9.174;2024-03-02T07:18:53;25.55;;;13.48;;
48743;SDS011;34538;48.836;9.174;2024-03-02T07:21:21;25.05;;;14.13;;
48743;SDS011;34538;48.836;9.174;2024-03-02T07:23:48;21.85;;;11.95;;
48743;SDS011;34538;48.836;9.174;2024-03-02T07:26:16;22.75;;;13.00;;
48743;SDS011;34538;48.836;9.174;2024-03-02T07:28:45;22.92;;;12.70;;
48743;SDS011;34538;48.836;9.174;2024-03-02T07:31:13;23.17;;;12.70;;
48743;SDS011;34538;48.836;9.174;2024-03-02T07:33:39;23.05;;;13.02;;
48743;SDS011;34538;48.836;9.174;2024-03-02T07:36:06;22.42;;;12.50;;
48743;SDS011;34538;48.836;9.174;2024-03-02T07:38:34;24.77;;;12.90;;
48743;SDS011;34538;48.836;9.174;2024-03-02T07:41:00;23.50;;;12.73;;
48743;SDS011;34538;48.836;9.174;2024-03-02T07:43:27;21.58;;;12.60;;
48743;SDS011;34538;48.836;9.174;2024-03-02T07:45:56;24.38;;;13.32;;
48743;SDS011;34538;48.836;9.174;2024-03-02T07:48:22;18.58;;;11.43;;
48743;SDS011;34538;48.836;9.174;2024-03-02T07:50:50;19.35;;;11.63;;
48743;SDS011;34538;48.836;9.174;2024-03-02T07:53:17;21.02;;;11.05;;
48743;SDS011;34538;48.836;9.174;2024-03-02T07:55:43;20.98;;;10.98;;
48743;SDS011;34538;48.836;9.174;2024-03-02T07:58:10;18.90;;;11.02;;
48743;SDS011;34538;48.836;9.174;2024-03-02T08:00:38;18.38;;;10.27;;
48743;SDS011;34538;48.836;9.174;2024-03-02T08:03:07;16.35;;;9.55;;
48743;SDS011;34538;48.836;9.174;2024-03-02T08:05:36;18.10;;;10.30;;
48743;SDS011;34538;48.836;9.174;2024-03-02T08:08:04;17.25;;;9.73;;
48743;SDS011;34538;48.836;9.174;2024-03-02T08:10:31;16.77;;;9.75;;
48743;SDS011;34538;48.836;9.174;2024-03-02T08:12:59;17.15;;;10.13;;
48743;SDS011;34538;48.836;9.174;2024-03-02T08:15:26;17.92;;;9.85;;
48743;SDS011;34538;48.836;9.174;2024-03-02T08:17:52;15.32;;;9.23;;
48743;SDS011;34538;48.836;9.174;2024-03-02T08:20:21;18.75;;;10.65;;
48743;SDS011;34538;48.836;9.174;2024-03-02T08:22:48;17.77;;;10.15;;
48743;SDS011;34538;48.836;9.174;2024-03-02T08:25:15;15.55;;;8.23;;
48743;SDS011;34538;48.836;9.174;2024-03-02T08:27:42;14.45;;;8.40;;
48743;SDS011;34538;48.836;9.174;2024-03-02T08:30:09;15.93;;;8.73;;
48743;SDS011;34538;48.836;9.174;2024-03-02T08:32:37;16.20;;;9.18;;
48743;SDS011;34538;48.836;9.174;2024-03-02T08:35:06;15.80;;;8.25;;
48743;SDS011;34538;48.836;9.174;2024-03-02T08:37:34;14.65;;;8.20;;
48743;SDS011;34538;48.836;9.174;2024-03-02T08:40:03;15.20;;;8.95;;
48743;SDS011;34538;48.836;9.174;2024-03-02T08:42:32;16.17;;;8.63;;
48743;SDS011;34538;48.836;9.174;2024-03-02T08:44:59;13.40;;;8.77;;
48743;SDS011;34538;48.836;9.174;2024-03-02T08:47:27;15.02;;;8.02;;
48743;SDS011;34538;48.836;9.174;2024-03-02T08:49:54;12.88;;;7.63;;
48743;SDS011;34538;48.836;9.174;2024-03-02T08:52:20;13.15;;;7.40;;
48743;SDS011;34538;48.836;9.174;2024-03-02T08:54:49;11.23;;;7.05;;
48743;SDS011;34538;48.836;9.174;2024-03-02T08:57:16;12.95;;;7.20;;
48743;SDS011;34538;48.836;9.174;2024-03-02T08:59:43;13.45;;;6.70;;
48743;SDS011;34538;48.836;9.174;2024-03-02T09:02:10;12.57;;;7.43;;
48743;SDS011;34538;48.836;9.174;2024-03-02T09:04:37;10.27;;;6.45;;
48743;SDS011;34538;48.836;9.174;2024-03-02T09:07:04;9.25;;;5.82;;
48743;SDS011;34538;48.836;9.174;2024-03-02T09:09:32;10.02;;;5.50;;
48743;SDS011;34538;48.836;9.174;2024-03-02T09:12:01;10.55;;;5.90;;
48743;SDS011;34538;48.836;9.174;2024-03-02T09:14:28;8.10;;;4.90;;
48743;SDS011;34538;48.836;9.174;2024-03-02T09:16:55;7.65;;;5.07;;
48743;SDS011;34538;48.836;9.174;2024-03-02T09:19:21;8.77;;;5.13;;
48743;SDS011;34538;48.836;9.174;2024-03-02T09:21:48;8.82;;;5.25;;
48743;SDS011;34538;48.836;9.174;2024-03-02T09:24:16;9.07;;;5.38;;
48743;SDS011;34538;48.836;9.174;2024-03-02T09:26:42;10.15;;;5.65;;
48743;SDS011;34538;48.836;9.174;2024-03-02T09:29:10;9.43;;;5.63;;
48743;SDS011;34538;48.836;9.174;2024-03-02T09:31:39;8.85;;;5.35;;
48743;SDS011;34538;48.836;9.174;2024-03-02T09:34:06;8.95;;;4.25;;
48743;SDS011;34538;48.836;9.174;2024-03-02T09:36:33;8.05;;;4.90;;
48743;SDS011;34538;48.836;9.174;2024-03-02T09:39:00;7.47;;;4.50;;
48743;SDS011;34538;48.836;9.174;2024-03-02T09:41:29;7.88;;;5.05;;
48743;SDS011;34538;48.836;9.174;2024-03-02T09:43:55;9.13;;;5.15;;
48743;SDS011;34538;48.836;9.174;2024-03-02T09:46:25;8.10;;;4.60;;
48743;SDS011;34538;48.836;9.174;2024-03-02T09:48:52;7.10;;;4.55;;
48743;SDS011;34538;48.836;9.174;2024-03-02T09:51:19;8.63;;;4.93;;
48743;SDS011;34538;48.836;9.174;2024-03-02T09:53:47;8.40;;;5.22;;
48743;SDS011;34538;48.836;9.174;2024-03-02T09:56:14;8.02;;;4.70;;
48743;SDS011;34538;48.836;9.174;2024-03-02T09:58:43;7.22;;;4.50;;
48743;SDS011;34538;48.836;9.174;2024-03-02T10:01:10;8.07;;;4.38;;
48743;SDS011;34538;48.836;9.174;2024-03-02T10:03:38;7.00;;;4.20;;
48743;SDS011;34538;48.836;9.174;2024-03-02T10:06:21;7.38;;;4.30;;
48743;SDS011;34538;48.836;9.174;2024-03-02T10:08:49;6.25;;;4.10;;
48743;SDS011;34538;48.836;9.174;2024-03-02T10:11:25;7.38;;;4.00;;
48743;SDS011;34538;48.836;9.174;2024-03-02T10:14:04;6.30;;;4.07;;
48743;SDS011;34538;48.836;9.174;2024-03-02T10:16:33;7.55;;;4.20;;
48743;SDS011;34538;48.836;9.174;2024-03-02T10:19:16;5.78;;;3.70;;
48743;SDS011;34538;48.836;9.174;2024-03-02T10:21:44;8.40;;;3.78;;
48743;SDS011;34538;48.836;9.174;2024-03-02T10:24:11;5.85;;;3.40;;
48743;SDS011;34538;48.836;9.174;2024-03-02T10:26:38;5.50;;;3.53;;
48743;SDS011;34538;48.836;9.174;2024-03-02T10:29:07;5.25;;;3.05;;
48743;SDS011;34538;48.836;9.174;2024-03-02T10:31:36;8.48;;;4.20;;
48743;SDS011;34538;48.836;9.174;2024-03-02T10:34:03;7.15;;;3.15;;
48743;SDS011;34538;48.836;9.174;2024-03-02T10:36:32;6.95;;;3.40;;
48743;SDS011;34538;48.836;9.174;2024-03-02T10:39:01;6.47;;;3.95;;
48743;SDS011;34538;48.836;9.174;2024-03-02T10:41:29;6.32;;;3.80;;
48743;SDS011;34538;48.836;9.174;2024-03-02T10:43:59;7.78;;;3.60;;
48743;SDS011;34538;48.836;9.174;2024-03-02T10:46:29;4.88;;;3.10;;
48743;SDS011;34538;48.836;9.174;2024-03-02T10:48:57;5.28;;;3.55;;
48743;SDS011;34538;48.836;9.174;2024-03-02T10:51:25;5.65;;;3.60;;
48743;SDS011;34538;48.836;9.174;2024-03-02T10:53:58;5.95;;;3.35;;
48743;SDS011;34538;48.836;9.174;2024-03-02T10:56:27;6.55;;;3.78;;
48743;SDS011;34538;48.836;9.174;2024-03-02T10:58:58;5.50;;;3.13;;
48743;SDS011;34538;48.836;9.174;2024-03-02T11:01:29;4.97;;;3.08;;
48743;SDS011;34538;48.836;9.174;2024-03-02T11:03:58;5.18;;;3.40;;
48743;SDS011;34538;48.836;9.174;2024-03-02T11:06:28;5.50;;;2.90;;
48743;SDS011;34538;48.836;9.174;2024-03-02T11:09:00;5.50;;;3.10;;
48743;SDS011;34538;48.836;9.174;2024-03-02T11:11:36;4.78;;;3.08;;
48743;SDS011;34538;48.836;9.174;2024-03-02T11:14:07;4.43;;;2.90;;
48743;SDS011;34538;48.836;9.174;2024-03-02T11:16:37;4.88;;;2.70;;
48743;SDS011;34538;48.836;9.174;2024-03-02T11:19:07;4.78;;;2.50;;
48743;SDS011;34538;48.836;9.174;2024-03-02T11:21:36;4.28;;;2.80;;
48743;SDS011;34538;48.836;9.174;2024-03-02T11:26:58;4.57;;;2.67;;
48743;SDS011;34538;48.836;9.174;2024-03-02T11:29:44;3.70;;;2.58;;
48743;SDS011;34538;48.836;9.174;2024-03-02T11:32:16;4.35;;;2.85;;
48743;SDS011;34538;48.836;9.174;2024-03-02T11:34:47;4.03;;;2.35;;
48743;SDS011;34538;48.836;9.174;2024-03-02T11:37:16;3.95;;;2.13;;
48743;SDS011;34538;48.836;9.174;2024-03-02T11:39:45;4.05;;;2.35;;
48743;SDS011;34538;48.836;9.174;2024-03-02T11:42:13;4.30;;;2.63;;
48743;SDS011;34538;48.836;9.174;2024-03-02T11:44:42;3.83;;;2.13;;
48743;SDS011;34538;48.836;9.174;2024-03-02T11:47:11;3.40;;;1.90;;
48743;SDS011;34538;48.836;9.174;2024-03-02T11:49:41;2.40;;;1.60;;
48743;SDS011;34538;48.836;9.174;2024-03-02T11:52:11;2.15;;;1.50;;
48743;SDS011;34538;48.836;9.174;2024-03-02T11:54:39;1.67;;;1.20;;
48743;SDS011;34538;48.836;9.174;2024-03-02T11:57:13;1.73;;;1.10;;
48743;SDS011;34538;48.836;9.174;2024-03-02T11:59:41;3.75;;;1.20;;
48743;SDS011;34538;48.836;9.174;2024-03-02T12:02:13;2.13;;;1.20;;
48743;SDS011;34538;48.836;9.174;2024-03-02T12:04:42;2.17;;;1.00;;
48743;SDS011;34538;48.836;9.174;2024-03-02T12:07:10;2.08;;;0.80;;
48743;SDS011;34538;48.836;9.174;2024-03-02T12:09:38;1.00;;;0.80;;
48743;SDS011;34538;48.836;9.174;2024-03-02T12:12:05;0.40;;;0.40;;
48743;SDS011;34538;48.836;9.174;2024-03-02T12:14:35;0.75;;;0.50;;
48743;SDS011;34538;48.836;9.174;2024-03-02T12:17:03;0.52;;;0.40;;
48743;SDS011;34538;48.836;9.174;2024-03-02T12:19:32;0.35;;;0.28;;
48743;SDS011;34538;48.836;9.174;2024-03-02T12:21:59;2.30;;;0.50;;
48743;SDS011;34538;48.836;9.174;2024-03-02T12:24:27;0.88;;;0.70;;
48743;SDS011;34538;48.836;9.174;2024-03-02T12:26:54;0.65;;;0.40;;
48743;SDS011;34538;48.836;9.174;2024-03-02T12:29:22;0.75;;;0.40;;
48743;SDS011;34538;48.836;9.174;2024-03-02T12:31:51;2.45;;;0.60;;
48743;SDS011;34538;48.836;9.174;2024-03-02T12:34:18;0.75;;;0.47;;
48743;SDS011;34538;48.836;9.174;2024-03-02T12:36:45;1.48;;;0.50;;
48743;SDS011;34538;48.836;9.174;2024-03-02T12:39:17;1.08;;;0.50;;
48743;SDS011;34538;48.836;9.174;2024-03-02T12:41:45;0.93;;;0.57;;
48743;SDS011;34538;48.836;9.174;2024-03-02T12:44:15;1.83;;;0.90;;
48743;SDS011;34538;48.836;9.174;2024-03-02T12:46:42;1.23;;;0.60;;
48743;SDS011;34538;48.836;9.174;2024-03-02T12:49:11;0.68;;;0.47;;
48743;SDS011;34538;48.836;9.174;2024-03-02T12:51:39;0.85;;;0.50;;
48743;SDS011;34538;48.836;9.174;2024-03-02T12:54:07;0.88;;;0.43;;
48743;SDS011;34538;48.836;9.174;2024-03-02T12:56:35;0.57;;;0.30;;
48743;SDS011;34538;48.836;9.174;2024-03-02T12:59:02;1.52;;;0.60;;
48743;SDS011;34538;48.836;9.174;2024-03-02T13:01:29;1.73;;;0.40;;
48743;SDS011;34538;48.836;9.174;2024-03-02T13:03:57;0.70;;;0.50;;
48743;SDS011;34538;48.836;9.174;2024-03-02T13:06:26;1.92;;;0.50;;
48743;SDS011;34538;48.836;9.174;2024-03-02T13:08:54;0.85;;;0.50;;
48743;SDS011;34538;48.836;9.174;2024-03-02T13:11:21;3.50;;;0.50;;
48743;SDS011;34538;48.836;9.174;2024-03-02T13:13:49;1.38;;;0.60;;
48743;SDS011;34538;48.836;9.174;2024-03-02T13:16:16;1.33;;;0.68;;
48743;SDS011;34538;48.836;9.174;2024-03-02T13:18:45;1.77;;;0.70;;
48743;SDS011;34538;48.836;9.174;2024-03-02T13:21:12;0.90;;;0.70;;
48743;SDS011;34538;48.836;9.174;2024-03-02T13:23:41;1.20;;;0.60;;
48743;SDS011;34538;48.836;9.174;2024-03-02T13:26:07;1.33;;;0.73;;
48743;SDS011;34538;48.836;9.174;2024-03-02T13:28:36;1.17;;;0.50;;
48743;SDS011;34538;48.836;9.174;2024-03-02T13:31:04;0.60;;;0.60;;
48743;SDS011;34538;48.836;9.174;2024-03-02T13:33:31;2.05;;;0.80;;
48743;SDS011;34538;48.836;9.174;2024-03-02T13:35:58;1.33;;;0.70;;
48743;SDS011;34538;48.836;9.174;2024-03-02T13:38:26;0.85;;;0.60;;
48743;SDS011;34538;48.836;9.174;2024-03-02T13:40:55;0.85;;;0.68;;
48743;SDS011;34538;48.836;9.174;2024-03-02T13:43:22;0.80;;;0.55;;
48743;SDS011;34538;48.836;9.174;2024-03-02T13:45:49;1.48;;;0.75;;
48743;SDS011;34538;48.836;9.174;2024-03-02T13:48:17;1.23;;;0.70;;
48743;SDS011;34538;48.836;9.174;2024-03-02T13:50:44;3.08;;;0.80;;
48743;SDS011;34538;48.836;9.174;2024-03-02T13:53:11;2.00;;;0.55;;
48743;SDS011;34538;48.836;9.174;2024-03-02T13:55:38;0.60;;;0.50;;
48743;SDS011;34538;48.836;9.174;2024-03-02T13:58:08;1.05;;;0.60;;
48743;SDS011;34538;48.836;9.174;2024-03-02T14:00:35;0.90;;;0.70;;
48743;SDS011;34538;48.836;9.174;2024-03-02T14:03:02;1.63;;;0.80;;
48743;SDS011;34538;48.836;9.174;2024-03-02T14:05:30;1.58;;;0.80;;
48743;SDS011;34538;48.836;9.174;2024-03-02T14:07:57;1.05;;;0.75;;
48743;SDS011;34538;48.836;9.174;2024-03-02T14:10:25;2.42;;;1.05;;
48743;SDS011;34538;48.836;9.174;2024-03-02T14:12:52;2.22;;;0.77;;
48743;SDS011;34538;48.836;9.174;2024-03-02T14:15:22;1.52;;;0.82;;
48743;SDS011;34538;48.836;9.174;2024-03-02T14:17:49;2.00;;;0.80;;
48743;SDS011;34538;48.836;9.174;2024-03-02T14:20:16;2.63;;;0.88;;
48743;SDS011;34538;48.836;9.174;2024-03-02T14:22:47;1.20;;;0.73;;
48743;SDS011;34538;48.836;9.174;2024-03-02T14:25:15;3.22;;;1.13;;
48743;SDS011;34538;48.836;9.174;2024-03-02T14:27:42;3.13;;;1.40;;
48743;SDS011;34538;48.836;9.174;2024-03-02T14:30:09;1.77;;;1.20;;
48743;SDS011;34538;48.836;9.174;2024-03-02T14:32:38;2.78;;;0.80;;
48743;SDS011;34538;48.836;9.174;2024-03-02T14:35:06;2.30;;;0.70;;
48743;SDS011;34538;48.836;9.174;2024-03-02T14:37:35;1.02;;;0.77;;
48743;SDS011;34538;48.836;9.174;2024-03-02T14:40:02;1.15;;;0.75;;